createdAt,value
2022-12-03T00:00:46.158Z,101962.44
2022-12-03T00:03:14.693Z,101953.66
2022-12-03T00:05:48.856Z,101955.41
2022-12-03T00:08:18.056Z,101962.06
2022-12-03T00:10:47.636Z,101961.81
2022-12-03T00:13:15.679Z,101959.22
2022-12-03T00:15:43.663Z,101959.22
2022-12-03T00:18:12.304Z,101960.94
2022-12-03T00:20:40.305Z,101961.47
2022-12-03T00:23:08.451Z,101956.13
2022-12-03T00:25:36.499Z,101965.69
2022-12-03T00:28:06.160Z,101950.50
2022-12-03T00:30:34.463Z,101955.50
2022-12-03T00:33:02.839Z,101961.63
2022-12-03T00:35:31.385Z,101956.88
2022-12-03T00:37:59.534Z,101956.28
2022-12-03T00:40:27.710Z,101951.38
2022-12-03T00:42:55.686Z,101955.00
2022-12-03T00:45:25.217Z,101945.78
2022-12-03T00:47:53.495Z,101951.00
2022-12-03T00:50:21.799Z,101949.63
2022-12-03T00:52:50.240Z,101946.91
2022-12-03T00:55:18.842Z,101950.06
2022-12-03T00:57:47.230Z,101943.13
2022-12-03T01:00:16.904Z,101942.00
2022-12-03T01:02:46.579Z,101952.56
2022-12-03T01:05:14.696Z,101954.94
2022-12-03T01:07:42.854Z,101950.50
2022-12-03T01:10:11.996Z,101952.16
2022-12-03T01:12:40.348Z,101956.97
2022-12-03T01:15:09.607Z,101952.38
2022-12-03T01:17:38.219Z,101956.88
2022-12-03T01:20:10.027Z,101950.53
2022-12-03T01:22:38.538Z,101959.75
2022-12-03T01:25:07.509Z,101956.13
2022-12-03T01:27:35.416Z,101952.56
2022-12-03T01:30:03.384Z,101958.84
2022-12-03T01:32:30.292Z,101957.78
2022-12-03T01:34:58.321Z,101952.47
2022-12-03T01:37:28.667Z,101969.63
2022-12-03T01:39:56.596Z,101959.66
2022-12-03T01:42:26.879Z,101961.66
2022-12-03T01:44:57.193Z,101952.56
2022-12-03T01:47:28.569Z,101963.72
2022-12-03T01:50:00.973Z,101962.78
2022-12-03T01:52:33.398Z,101957.44
2022-12-03T01:55:03.394Z,101962.78
2022-12-03T01:57:36.476Z,101957.34
2022-12-03T02:00:05.693Z,101966.78
2022-12-03T02:02:34.470Z,101966.88
2022-12-03T02:05:07.884Z,101959.88
2022-12-03T02:07:37.298Z,101963.69
2022-12-03T02:10:06.084Z,101963.50
2022-12-03T02:12:37.853Z,101961.03
2022-12-03T02:15:08.198Z,101959.78
2022-12-03T02:17:37.138Z,101957.00
2022-12-03T02:20:07.770Z,101965.34
2022-12-03T02:22:44.377Z,101963.19
2022-12-03T02:25:25.656Z,101961.31
2022-12-03T02:27:55.154Z,101956.72
2022-12-03T02:30:24.968Z,101957.34
2022-12-03T02:32:54.238Z,101952.13
2022-12-03T02:35:24.278Z,101954.94
2022-12-03T02:37:59.311Z,101953.72
2022-12-03T02:40:32.164Z,101956.09
2022-12-03T02:43:01.347Z,101952.41
2022-12-03T02:45:32.637Z,101950.03
2022-12-03T02:48:04.252Z,101958.66
2022-12-03T02:50:34.920Z,101954.69
2022-12-03T02:53:06.707Z,101954.84
2022-12-03T02:55:37.671Z,101950.72
2022-12-03T02:58:06.677Z,101958.75
2022-12-03T03:00:36.359Z,101961.03
2022-12-03T03:03:06.011Z,101957.44
2022-12-03T03:05:36.968Z,101957.31
2022-12-03T03:08:06.567Z,101947.88
2022-12-03T03:10:38.800Z,101959.84
2022-12-03T03:13:11.363Z,101952.09
2022-12-03T03:15:40.518Z,101951.94
2022-12-03T03:18:10.068Z,101957.53
2022-12-03T03:20:38.721Z,101949.75
2022-12-03T03:23:14.161Z,101956.22
2022-12-03T03:25:47.676Z,101948.16
2022-12-03T03:28:16.969Z,101959.78
2022-12-03T03:30:45.380Z,101943.22
2022-12-03T03:33:14.526Z,101950.75
2022-12-03T03:35:44.411Z,101942.59
2022-12-03T03:38:12.942Z,101940.66
2022-12-03T03:40:41.256Z,101942.25
2022-12-03T03:43:11.637Z,101945.72
2022-12-03T03:45:40.220Z,101938.09
2022-12-03T03:48:08.469Z,101932.44
2022-12-03T03:50:36.968Z,101932.56
2022-12-03T03:53:06.447Z,101927.09
2022-12-03T03:55:35.085Z,101930.09
2022-12-03T03:58:03.239Z,101927.88
2022-12-03T04:00:33.238Z,101933.44
2022-12-03T04:03:01.552Z,101934.72
2022-12-03T04:05:29.649Z,101937.50
2022-12-03T04:07:58.898Z,101933.56
2022-12-03T04:10:44.798Z,101939.22
2022-12-03T04:13:13.253Z,101938.38
2022-12-03T04:15:42.823Z,101935.00
2022-12-03T04:18:28.491Z,101933.53
2022-12-03T04:21:17.267Z,101940.88
2022-12-03T04:23:44.567Z,101935.91
2022-12-03T04:26:29.966Z,101931.31
2022-12-03T04:28:58.093Z,101933.88
2022-12-03T04:31:45.052Z,101930.59
2022-12-03T04:34:30.651Z,101928.09
2022-12-03T04:36:59.295Z,101934.22
2022-12-03T04:39:27.464Z,101929.09
2022-12-03T04:41:55.601Z,101927.66
2022-12-03T04:44:38.876Z,101931.56
2022-12-03T04:47:10.791Z,101933.09
2022-12-03T04:49:41.175Z,101931.66
2022-12-03T04:52:09.891Z,101933.38
2022-12-03T04:54:38.822Z,101925.22
2022-12-03T04:57:07.948Z,101925.09
2022-12-03T04:59:36.366Z,101926.59
2022-12-03T05:02:06.096Z,101927.56
2022-12-03T05:04:35.875Z,101927.53
2022-12-03T05:07:04.082Z,101933.97
2022-12-03T05:09:33.595Z,101931.78
2022-12-03T05:12:01.775Z,101927.25
2022-12-03T05:14:29.984Z,101929.63
2022-12-03T05:16:58.260Z,101928.53
2022-12-03T05:19:46.688Z,101924.88
2022-12-03T05:22:15.102Z,101917.34
2022-12-03T05:24:43.347Z,101921.78
2022-12-03T05:27:11.296Z,101920.09
2022-12-03T05:29:39.260Z,101921.31
2022-12-03T05:32:07.664Z,101917.97
2022-12-03T05:34:35.587Z,101915.25
2022-12-03T05:37:03.484Z,101919.09
2022-12-03T05:39:33.063Z,101925.28
2022-12-03T05:42:18.464Z,101917.47
2022-12-03T05:44:46.502Z,101918.75
2022-12-03T05:47:14.541Z,101913.84
2022-12-03T05:49:42.535Z,101921.22
2022-12-03T05:52:10.403Z,101912.81
2022-12-03T05:54:39.858Z,101913.38
2022-12-03T05:57:08.116Z,101921.25
2022-12-03T05:59:36.132Z,101922.44
2022-12-03T06:02:04.191Z,101926.75
2022-12-03T06:04:32.319Z,101923.31
2022-12-03T06:07:00.374Z,101928.09
2022-12-03T06:09:28.525Z,101924.09
2022-12-03T06:11:57.796Z,101922.88
2022-12-03T06:14:25.944Z,101925.00
2022-12-03T06:16:54.132Z,101919.44
2022-12-03T06:19:22.182Z,101922.66
2022-12-03T06:21:50.112Z,101920.09
2022-12-03T06:24:17.946Z,101921.66
2022-12-03T06:26:46.035Z,101919.59
2022-12-03T06:29:15.533Z,101916.03
2022-12-03T06:31:43.523Z,101922.25
2022-12-03T06:34:11.637Z,101923.97
2022-12-03T06:36:39.640Z,101915.38
2022-12-03T06:39:07.783Z,101920.06
2022-12-03T06:41:36.090Z,101914.34
2022-12-03T06:44:04.181Z,101919.63
2022-12-03T06:46:33.627Z,101916.22
2022-12-03T06:49:01.762Z,101925.09
2022-12-03T06:51:29.735Z,101916.00
2022-12-03T06:53:57.684Z,101909.97
2022-12-03T06:56:31.102Z,101918.41
2022-12-03T06:59:02.491Z,101913.25
2022-12-03T07:01:30.715Z,101916.97
2022-12-03T07:04:00.144Z,101915.53
2022-12-03T07:06:28.051Z,101913.69
2022-12-03T07:08:56.117Z,101914.31
2022-12-03T07:11:32.852Z,101909.06
2022-12-03T07:14:05.479Z,101910.44
2022-12-03T07:16:34.782Z,101906.28
2022-12-03T07:19:05.085Z,101909.84
2022-12-03T07:21:33.503Z,101910.53
2022-12-03T07:24:01.968Z,101901.63
2022-12-03T07:26:29.957Z,101906.19
2022-12-03T07:28:58.235Z,101904.50
2022-12-03T07:31:26.772Z,101901.53
2022-12-03T07:33:56.485Z,101900.88
2022-12-03T07:36:26.439Z,101894.56
2022-12-03T07:38:54.787Z,101904.31
2022-12-03T07:41:22.928Z,101900.50
2022-12-03T07:43:51.186Z,101897.63
2022-12-03T07:46:20.432Z,101902.97
2022-12-03T07:48:57.226Z,101900.34
2022-12-03T07:51:44.613Z,101890.88
2022-12-03T07:54:15.975Z,101889.19
2022-12-03T07:56:51.041Z,101889.50
2022-12-03T07:59:21.221Z,101893.25
2022-12-03T08:01:49.658Z,101893.25
2022-12-03T08:04:22.863Z,101886.63
2022-12-03T08:06:52.532Z,101887.28
2022-12-03T08:09:21.306Z,101899.13
2022-12-03T08:11:51.308Z,101888.56
2022-12-03T08:14:21.569Z,101886.72
2022-12-03T08:16:50.330Z,101891.44
2022-12-03T08:19:19.698Z,101893.03
2022-12-03T08:21:48.617Z,101888.97
2022-12-03T08:24:21.649Z,101886.66
2022-12-03T08:26:50.903Z,101885.03
2022-12-03T08:29:21.107Z,101885.91
2022-12-03T08:31:52.288Z,101876.75
2022-12-03T08:34:22.524Z,101881.50
2022-12-03T08:36:53.422Z,101884.00
2022-12-03T08:39:34.315Z,101892.03
2022-12-03T08:42:30.907Z,101893.38
2022-12-03T08:45:17.733Z,101888.53
2022-12-03T08:47:45.990Z,101888.28
2022-12-03T08:50:28.330Z,101883.72
2022-12-03T08:53:00.910Z,101884.72
2022-12-03T08:55:36.937Z,101885.72
2022-12-03T08:58:19.690Z,101884.38
2022-12-03T09:00:48.409Z,101876.03
2022-12-03T09:03:20.012Z,101873.38
2022-12-03T09:05:48.085Z,101882.09
2022-12-03T09:08:16.471Z,101879.72
2022-12-03T09:10:45.955Z,101880.09
2022-12-03T09:13:14.003Z,101884.47
2022-12-03T09:15:42.470Z,101880.97
2022-12-03T09:18:10.540Z,101882.69
2022-12-03T09:20:38.556Z,101880.38
2022-12-03T09:23:06.841Z,101883.31
2022-12-03T09:25:34.846Z,101878.38
2022-12-03T09:28:04.502Z,101882.53
2022-12-03T09:30:33.562Z,101875.44
2022-12-03T09:33:01.444Z,101877.09
2022-12-03T09:35:29.339Z,101879.31
2022-12-03T09:37:57.222Z,101881.69
2022-12-03T09:40:25.390Z,101872.66
2022-12-03T09:42:53.336Z,101877.09
2022-12-03T09:45:22.698Z,101870.19
2022-12-03T09:47:51.403Z,101867.97
2022-12-03T09:50:23.093Z,101872.09
2022-12-03T09:52:54.790Z,101866.22
2022-12-03T09:55:25.237Z,101878.75
2022-12-03T09:57:53.778Z,101866.63
2022-12-03T10:00:25.605Z,101865.34
2022-12-03T10:02:56.099Z,101872.59
2022-12-03T10:05:24.887Z,101864.25
2022-12-03T10:07:54.077Z,101860.13
2022-12-03T10:10:25.274Z,101859.59
2022-12-03T10:12:54.549Z,101857.59
2022-12-03T10:15:27.241Z,101848.00
2022-12-03T10:17:57.244Z,101855.22
2022-12-03T10:20:27.415Z,101855.66
2022-12-03T10:23:01.180Z,101850.53
2022-12-03T10:25:29.535Z,101846.16
2022-12-03T10:28:00.184Z,101843.22
2022-12-03T10:30:30.180Z,101837.00
2022-12-03T10:33:02.583Z,101839.88
2022-12-03T10:35:39.543Z,101842.28
2022-12-03T10:38:08.965Z,101842.66
2022-12-03T10:40:39.222Z,101839.66
2022-12-03T10:43:33.503Z,101833.97
2022-12-03T10:46:13.985Z,101831.88
2022-12-03T10:49:07.072Z,101820.81
2022-12-03T10:51:35.260Z,101826.22
2022-12-03T10:54:05.562Z,101824.78
2022-12-03T10:56:33.737Z,101828.69
2022-12-03T10:59:01.802Z,101824.53
2022-12-03T11:01:33.136Z,101818.69
2022-12-03T11:04:06.960Z,101820.44
2022-12-03T11:06:35.131Z,101816.00
2022-12-03T11:09:08.808Z,101809.59
2022-12-03T11:11:37.392Z,101812.78
2022-12-03T11:14:05.845Z,101806.47
2022-12-03T11:17:07.646Z,101808.31
2022-12-03T11:20:01.348Z,101803.94
2022-12-03T11:22:41.225Z,101798.72
2022-12-03T11:26:13.038Z,101801.75
2022-12-03T11:29:03.505Z,101798.31
2022-12-03T11:38:53.000Z,101787.78
2022-12-03T22:21:34.111Z,101594.72
2022-12-03T22:24:04.753Z,101591.50
2022-12-03T22:26:36.007Z,101583.84
